Jrs Merkur — V2FD8 — position and weather

sailwx.info

Track history (hours):
 
Tides and Currents Weather Stations Pressure Air Temp Water Temp Dewpoint Dewpoint Depression Visibility Wind Speed Wind Dir Waves Ship Positions

Jrs Merkur

Last reported at 2016-Aug-27 09:33 UTC. Time now 2016-Aug-27 13:24 UTC.
Position N 54°31' E 010°16'.

Length 107 m; draft 5.5 m.

Type: Cargo ship. MMSI: 305644000.

Date/timePositionNaut miles runAvg speedWind from/ knotsBaromVisibWave heightAir tempDewpointWater temp
2016-Aug-27 09:33N 54°31' E 010°16'10 9.2
2016-Aug-27 08:30N 54°33' E 010°32'1010.9
2016-Aug-27 07:33N 54°35' E 010°50'1211.6
2016-Aug-27 06:33N 54°36' E 011°10'2311.4
2016-Aug-27 04:33N 54°27' E 011°45'1110.8
2016-Aug-27 03:33N 54°26' E 012°04'1010.4
2016-Aug-27 02:33N 54°35' E 012°14'1111.3
2016-Aug-27 01:33N 54°42' E 012°29'1111.2
2016-Aug-27 00:33N 54°48' E 012°46'1111.0
2016-Aug-26 23:33N 54°52' E 013°03'1111.1
2016-Aug-26 22:33N 54°55' E 013°22'1111.0
2016-Aug-26 21:33N 54°59' E 013°40'1110.9
2016-Aug-26 20:33N 55°03' E 013°58'1110.5
2016-Aug-26 19:33N 55°10' E 014°12'1110.8
2016-Aug-26 18:33N 55°18' E 014°23'1010.5
2016-Aug-26 17:33N 55°27' E 014°34'1110.6
2016-Aug-26 16:33N 55°38' E 014°36'1010.3
2016-Aug-26 15:33N 55°48' E 014°37'1010.0
2016-Aug-26 14:33N 55°58' E 014°36'4 3.8
2016-Aug-26 13:28N 56°02' E 014°35'0 0.0
2016-Aug-26 12:28N 56°02' E 014°35'0 0.0
2016-Aug-26 11:28N 56°02' E 014°35'0 0.0
2016-Aug-26 10:28N 56°02' E 014°35'0 0.0
2016-Aug-26 09:16N 56°02' E 014°35'0 0.0
2016-Aug-26 07:19N 56°02' E 014°35'0 0.0
2016-Aug-26 06:13N 56°02' E 014°35'0 0.0
2016-Aug-26 04:28N 56°02' E 014°35'0 0.0
2016-Aug-26 03:28N 56°02' E 014°35'0 0.0
2016-Aug-26 02:10N 56°02' E 014°35'0 0.0
2016-Aug-26 01:28N 56°02' E 014°35'0 0.0
2016-Aug-26 00:28N 56°02' E 014°35'0 0.0
2016-Aug-25 23:28N 56°02' E 014°35'0 0.0
2016-Aug-25 22:16N 56°02' E 014°35'0 0.0
2016-Aug-25 21:22N 56°02' E 014°35'0 0.0
2016-Aug-25 20:28N 56°02' E 014°35'0 0.0
2016-Aug-25 19:28N 56°02' E 014°35'0 0.0
2016-Aug-25 18:31N 56°02' E 014°35'0 0.0
2016-Aug-25 17:31N 56°02' E 014°35'0 0.0
2016-Aug-25 16:31N 56°02' E 014°35'0 0.0
2016-Aug-25 15:28N 56°02' E 014°35'0 0.0
2016-Aug-25 14:22N 56°02' E 014°35'0 0.0
2016-Aug-25 12:28N 56°02' E 014°35'0 0.0
2016-Aug-25 10:22N 56°02' E 014°35'0 0.0
2016-Aug-25 08:28N 56°02' E 014°35'2 2.4
2016-Aug-25 07:33N 55°60' E 014°33'1010.4
2016-Aug-25 06:33N 55°50' E 014°38'2311.4
2016-Aug-25 04:33N 55°27' E 014°41'1211.7
2016-Aug-25 03:33N 55°17' E 014°29'1110.7
2016-Aug-25 02:34N 55°11' E 014°14'1211.6
2016-Aug-25 01:33N 55°11' E 013°53'1110.9
2016-Aug-25 00:33N 55°12' E 013°34'1111.2
2016-Aug-24 23:33N 55°13' E 013°15'1111.3
2016-Aug-24 22:33N 55°14' E 012°55'1110.8
2016-Aug-24 21:33N 55°18' E 012°38'1010.4
2016-Aug-24 20:33N 55°29' E 012°41'9 9.0
2016-Aug-24 19:33N 55°38' E 012°42'10 9.8
2016-Aug-24 18:33N 55°47' E 012°42'1010.0
2016-Aug-24 17:33N 55°57' E 012°40'9 9.2
2016-Aug-24 16:33N 56°06' E 012°34'1010.4
2016-Aug-24 15:33N 56°12' E 012°18'1111.3
2016-Aug-24 14:33N 56°19' E 012°03'1211.8
2016-Aug-24 13:33N 56°31' E 011°58'1411.5
2016-Aug-24 12:21N 56°44' E 011°53'911.4
2016-Aug-24 11:33N 56°53' E 011°47'1211.4
2016-Aug-24 10:32N 57°04' E 011°39'1111.2
2016-Aug-24 09:33N 57°14' E 011°33'1111.1
2016-Aug-24 08:33N 57°24' E 011°26'10 9.7
2016-Aug-24 07:32N 57°31' E 011°12'1010.0
2016-Aug-24 06:33N 57°35' E 010°56'13 1.4
2016-Aug-23 21:30N 57°46' E 010°44'19110.5
2016-Aug-23 03:19N 55°33' E 006°37'910.9
2016-Aug-23 02:30N 55°25' E 006°29'7811.0
2016-Aug-22 19:26N 54°18' E 005°20'910.8
2016-Aug-22 18:34N 54°10' E 005°12'1110.6
2016-Aug-22 17:34N 54°00' E 005°05'1110.5
2016-Aug-22 16:33N 53°51' E 004°58'4110.2
2016-Aug-22 12:32N 53°12' E 004°34'21 9.9
2016-Aug-22 10:25N 52°54' E 004°17'9111.5
2016-Aug-22 02:33N 51°47' E 002°38'1211.8
2016-Aug-22 01:34N 51°38' E 002°26'1110.9
2016-Aug-22 00:33N 51°29' E 002°15'9 9.3
2016-Aug-21 23:34N 51°21' E 002°07'8 8.4
2016-Aug-21 22:33N 51°13' E 002°02'8 8.2
2016-Aug-21 21:34N 51°09' E 001°51'8 8.0
2016-Aug-21 20:33N 51°04' E 001°41'8 8.4
2016-Aug-21 19:34N 50°58' E 001°33'9 9.0
2016-Aug-21 18:33N 50°50' E 001°26'27110.3
2016-Aug-20 16:16N 49°01' W 005°01'912.1
2016-Aug-20 15:33N 48°57' W 005°12'1211.7
2016-Aug-20 14:33N 48°51' W 005°27'  
Track history (hours):
 
Tides and Currents Weather Stations Pressure Air Temp Water Temp Dewpoint Dewpoint Depression Visibility Wind Speed Wind Dir Waves Ship Positions

Jrs Merkur

Last reported at 2016-Aug-27 09:33 UTC. Time now 2016-Aug-27 13:24 UTC.
Position N 54°31' E 010°16'.

Length 107 m; draft 5.5 m.

Type: Cargo ship. MMSI: 305644000.

Date/timePositionNaut miles runAvg speedWind from/ knotsBaromVisibWave heightAir tempDewpointWater temp
2016-Aug-27 09:33N 54°31' E 010°16'10 9.2
2016-Aug-27 08:30N 54°33' E 010°32'1010.9
2016-Aug-27 07:33N 54°35' E 010°50'1211.6
2016-Aug-27 06:33N 54°36' E 011°10'2311.4
2016-Aug-27 04:33N 54°27' E 011°45'1110.8
2016-Aug-27 03:33N 54°26' E 012°04'1010.4
2016-Aug-27 02:33N 54°35' E 012°14'1111.3
2016-Aug-27 01:33N 54°42' E 012°29'1111.2
2016-Aug-27 00:33N 54°48' E 012°46'1111.0
2016-Aug-26 23:33N 54°52' E 013°03'1111.1
2016-Aug-26 22:33N 54°55' E 013°22'1111.0
2016-Aug-26 21:33N 54°59' E 013°40'1110.9
2016-Aug-26 20:33N 55°03' E 013°58'1110.5
2016-Aug-26 19:33N 55°10' E 014°12'1110.8
2016-Aug-26 18:33N 55°18' E 014°23'1010.5
2016-Aug-26 17:33N 55°27' E 014°34'1110.6
2016-Aug-26 16:33N 55°38' E 014°36'1010.3
2016-Aug-26 15:33N 55°48' E 014°37'1010.0
2016-Aug-26 14:33N 55°58' E 014°36'4 3.8
2016-Aug-26 13:28N 56°02' E 014°35'0 0.0
2016-Aug-26 12:28N 56°02' E 014°35'0 0.0
2016-Aug-26 11:28N 56°02' E 014°35'0 0.0
2016-Aug-26 10:28N 56°02' E 014°35'0 0.0
2016-Aug-26 09:16N 56°02' E 014°35'0 0.0
2016-Aug-26 07:19N 56°02' E 014°35'0 0.0
2016-Aug-26 06:13N 56°02' E 014°35'0 0.0
2016-Aug-26 04:28N 56°02' E 014°35'0 0.0
2016-Aug-26 03:28N 56°02' E 014°35'0 0.0
2016-Aug-26 02:10N 56°02' E 014°35'0 0.0
2016-Aug-26 01:28N 56°02' E 014°35'0 0.0
2016-Aug-26 00:28N 56°02' E 014°35'0 0.0
2016-Aug-25 23:28N 56°02' E 014°35'0 0.0
2016-Aug-25 22:16N 56°02' E 014°35'0 0.0
2016-Aug-25 21:22N 56°02' E 014°35'0 0.0
2016-Aug-25 20:28N 56°02' E 014°35'0 0.0
2016-Aug-25 19:28N 56°02' E 014°35'0 0.0
2016-Aug-25 18:31N 56°02' E 014°35'0 0.0
2016-Aug-25 17:31N 56°02' E 014°35'0 0.0
2016-Aug-25 16:31N 56°02' E 014°35'0 0.0
2016-Aug-25 15:28N 56°02' E 014°35'0 0.0
2016-Aug-25 14:22N 56°02' E 014°35'0 0.0
2016-Aug-25 12:28N 56°02' E 014°35'0 0.0
2016-Aug-25 10:22N 56°02' E 014°35'0 0.0
2016-Aug-25 08:28N 56°02' E 014°35'2 2.4
2016-Aug-25 07:33N 55°60' E 014°33'1010.4
2016-Aug-25 06:33N 55°50' E 014°38'2311.4
2016-Aug-25 04:33N 55°27' E 014°41'1211.7
2016-Aug-25 03:33N 55°17' E 014°29'1110.7
2016-Aug-25 02:34N 55°11' E 014°14'1211.6
2016-Aug-25 01:33N 55°11' E 013°53'1110.9
2016-Aug-25 00:33N 55°12' E 013°34'1111.2
2016-Aug-24 23:33N 55°13' E 013°15'1111.3
2016-Aug-24 22:33N 55°14' E 012°55'1110.8
2016-Aug-24 21:33N 55°18' E 012°38'1010.4
2016-Aug-24 20:33N 55°29' E 012°41'9 9.0
2016-Aug-24 19:33N 55°38' E 012°42'10 9.8
2016-Aug-24 18:33N 55°47' E 012°42'1010.0
2016-Aug-24 17:33N 55°57' E 012°40'9 9.2
2016-Aug-24 16:33N 56°06' E 012°34'1010.4
2016-Aug-24 15:33N 56°12' E 012°18'1111.3
2016-Aug-24 14:33N 56°19' E 012°03'1211.8
2016-Aug-24 13:33N 56°31' E 011°58'1411.5
2016-Aug-24 12:21N 56°44' E 011°53'911.4
2016-Aug-24 11:33N 56°53' E 011°47'1211.4
2016-Aug-24 10:32N 57°04' E 011°39'1111.2
2016-Aug-24 09:33N 57°14' E 011°33'1111.1
2016-Aug-24 08:33N 57°24' E 011°26'10 9.7
2016-Aug-24 07:32N 57°31' E 011°12'1010.0
2016-Aug-24 06:33N 57°35' E 010°56'13 1.4
2016-Aug-23 21:30N 57°46' E 010°44'19110.5
2016-Aug-23 03:19N 55°33' E 006°37'910.9
2016-Aug-23 02:30N 55°25' E 006°29'7811.0
2016-Aug-22 19:26N 54°18' E 005°20'910.8
2016-Aug-22 18:34N 54°10' E 005°12'1110.6
2016-Aug-22 17:34N 54°00' E 005°05'1110.5
2016-Aug-22 16:33N 53°51' E 004°58'4110.2
2016-Aug-22 12:32N 53°12' E 004°34'21 9.9
2016-Aug-22 10:25N 52°54' E 004°17'9111.5
2016-Aug-22 02:33N 51°47' E 002°38'1211.8
2016-Aug-22 01:34N 51°38' E 002°26'1110.9
2016-Aug-22 00:33N 51°29' E 002°15'9 9.3
2016-Aug-21 23:34N 51°21' E 002°07'8 8.4
2016-Aug-21 22:33N 51°13' E 002°02'8 8.2
2016-Aug-21 21:34N 51°09' E 001°51'8 8.0
2016-Aug-21 20:33N 51°04' E 001°41'8 8.4
2016-Aug-21 19:34N 50°58' E 001°33'9 9.0
2016-Aug-21 18:33N 50°50' E 001°26'27110.3
2016-Aug-20 16:16N 49°01' W 005°01'912.1
2016-Aug-20 15:33N 48°57' W 005°12'1211.7
2016-Aug-20 14:33N 48°51' W 005°27'  

Dump ship's entire track history